Terminal Aerodrome Forecast
Issued by NWS Louisville, KY

Home | Current Version | Previous Version | Text Only | Print | Product List | Glossary On
Versions: 1 2 3 4 5 6 7 8 9 10 11 12 13 14 15 16
000
FTUS43 KLMK 301700
TAFBWG
TAF
KBWG 301721Z 3018/0118 32006KT P6SM FEW050
     FM010000 00000KT P6SM FEW250
     FM010800 VRB03KT 3SM BR SKC
      TEMPO 0109/0113 1SM BR SCT003
     FM011400 VRB05KT P6SM FEW050=

USA.gov is the U.S. government's official web portal to all federal, state and local government web resources and services.